sensor_id;sensor_type;location;lat;lon;timestamp;temperature;humidity
52867;DHT22;38739;53.324;6.862;2023-02-28T00:01:28;4.60;99.90
52867;DHT22;38739;53.324;6.862;2023-02-28T00:03:57;4.50;99.90
52867;DHT22;38739;53.324;6.862;2023-02-28T00:06:23;4.50;99.90
52867;DHT22;38739;53.324;6.862;2023-02-28T00:08:49;4.50;99.90
52867;DHT22;38739;53.324;6.862;2023-02-28T00:11:16;4.50;99.90
52867;DHT22;38739;53.324;6.862;2023-02-28T00:13:46;4.50;99.90
52867;DHT22;38739;53.324;6.862;2023-02-28T00:16:17;4.50;99.90
52867;DHT22;38739;53.324;6.862;2023-02-28T00:18:43;4.50;99.90
52867;DHT22;38739;53.324;6.862;2023-02-28T00:21:13;4.50;99.90
52867;DHT22;38739;53.324;6.862;2023-02-28T00:23:38;4.50;99.90
52867;DHT22;38739;53.324;6.862;2023-02-28T00:26:04;4.50;99.90
52867;DHT22;38739;53.324;6.862;2023-02-28T00:28:30;4.50;99.90
52867;DHT22;38739;53.324;6.862;2023-02-28T00:30:56;4.50;99.90
52867;DHT22;38739;53.324;6.862;2023-02-28T00:33:23;4.50;99.90
52867;DHT22;38739;53.324;6.862;2023-02-28T00:35:48;4.50;99.90
52867;DHT22;38739;53.324;6.862;2023-02-28T00:38:15;4.50;99.90
52867;DHT22;38739;53.324;6.862;2023-02-28T00:40:41;4.50;99.90
52867;DHT22;38739;53.324;6.862;2023-02-28T00:43:07;4.60;99.90
52867;DHT22;38739;53.324;6.862;2023-02-28T00:45:35;4.50;99.90
52867;DHT22;38739;53.324;6.862;2023-02-28T00:48:01;4.50;99.90
52867;DHT22;38739;53.324;6.862;2023-02-28T00:50:26;4.50;99.90
52867;DHT22;38739;53.324;6.862;2023-02-28T00:52:52;4.50;99.90
52867;DHT22;38739;53.324;6.862;2023-02-28T00:55:24;4.50;99.90
52867;DHT22;38739;53.324;6.862;2023-02-28T00:57:49;4.50;99.90
52867;DHT22;38739;53.324;6.862;2023-02-28T01:00:15;4.50;99.90
52867;DHT22;38739;53.324;6.862;2023-02-28T01:02:41;4.50;99.90
52867;DHT22;38739;53.324;6.862;2023-02-28T01:05:07;4.50;99.90
52867;DHT22;38739;53.324;6.862;2023-02-28T01:07:33;4.50;99.90
52867;DHT22;38739;53.324;6.862;2023-02-28T01:09:58;4.50;99.90
52867;DHT22;38739;53.324;6.862;2023-02-28T01:12:24;4.50;99.90
52867;DHT22;38739;53.324;6.862;2023-02-28T01:14:50;4.50;99.90
52867;DHT22;38739;53.324;6.862;2023-02-28T01:17:15;4.50;99.90
52867;DHT22;38739;53.324;6.862;2023-02-28T01:19:41;4.50;99.90
52867;DHT22;38739;53.324;6.862;2023-02-28T01:22:09;4.50;99.90
52867;DHT22;38739;53.324;6.862;2023-02-28T01:24:38;4.50;99.90
52867;DHT22;38739;53.324;6.862;2023-02-28T01:27:04;4.50;99.90
52867;DHT22;38739;53.324;6.862;2023-02-28T01:29:32;4.40;99.90
52867;DHT22;38739;53.324;6.862;2023-02-28T01:31:58;4.50;99.90
52867;DHT22;38739;53.324;6.862;2023-02-28T01:34:24;4.50;99.90
52867;DHT22;38739;53.324;6.862;2023-02-28T01:36:53;4.50;99.90
52867;DHT22;38739;53.324;6.862;2023-02-28T01:39:19;4.50;99.90
52867;DHT22;38739;53.324;6.862;2023-02-28T01:41:45;4.50;99.90
52867;DHT22;38739;53.324;6.862;2023-02-28T01:47:14;4.50;99.90
52867;DHT22;38739;53.324;6.862;2023-02-28T01:49:40;4.50;99.90
52867;DHT22;38739;53.324;6.862;2023-02-28T01:52:07;4.50;99.90
52867;DHT22;38739;53.324;6.862;2023-02-28T01:54:34;4.50;99.90
52867;DHT22;38739;53.324;6.862;2023-02-28T01:59:42;4.50;99.90
52867;DHT22;38739;53.324;6.862;2023-02-28T02:02:13;4.50;99.90
52867;DHT22;38739;53.324;6.862;2023-02-28T02:05:00;4.50;99.90
52867;DHT22;38739;53.324;6.862;2023-02-28T02:07:31;4.50;99.90
52867;DHT22;38739;53.324;6.862;2023-02-28T02:16:29;4.50;99.90
52867;DHT22;38739;53.324;6.862;2023-02-28T02:22:12;4.50;99.90
52867;DHT22;38739;53.324;6.862;2023-02-28T02:35:39;4.50;99.90
52867;DHT22;38739;53.324;6.862;2023-02-28T02:38:29;4.50;99.90
52867;DHT22;38739;53.324;6.862;2023-02-28T02:41:26;4.50;99.90
52867;DHT22;38739;53.324;6.862;2023-02-28T02:46:39;4.40;99.90
52867;DHT22;38739;53.324;6.862;2023-02-28T02:49:08;4.40;99.90
52867;DHT22;38739;53.324;6.862;2023-02-28T02:51:36;4.50;99.90
52867;DHT22;38739;53.324;6.862;2023-02-28T02:54:23;4.50;99.90
52867;DHT22;38739;53.324;6.862;2023-02-28T02:56:55;4.50;99.90
52867;DHT22;38739;53.324;6.862;2023-02-28T02:59:23;4.40;99.90
52867;DHT22;38739;53.324;6.862;2023-02-28T03:01:53;4.40;99.90
52867;DHT22;38739;53.324;6.862;2023-02-28T03:04:23;4.50;99.90
52867;DHT22;38739;53.324;6.862;2023-02-28T03:06:53;4.50;99.90
52867;DHT22;38739;53.324;6.862;2023-02-28T03:09:24;4.40;99.90
52867;DHT22;38739;53.324;6.862;2023-02-28T03:11:55;4.40;99.90
52867;DHT22;38739;53.324;6.862;2023-02-28T03:22:49;4.20;99.90
52867;DHT22;38739;53.324;6.862;2023-02-28T03:28:09;4.10;99.90
52867;DHT22;38739;53.324;6.862;2023-02-28T03:30:54;4.10;99.90
52867;DHT22;38739;53.324;6.862;2023-02-28T03:33:30;4.10;99.90
52867;DHT22;38739;53.324;6.862;2023-02-28T03:36:13;4.00;99.90
52867;DHT22;38739;53.324;6.862;2023-02-28T03:38:57;4.00;99.90
52867;DHT22;38739;53.324;6.862;2023-02-28T03:42:03;4.00;99.90
52867;DHT22;38739;53.324;6.862;2023-02-28T03:44:38;4.00;99.90
52867;DHT22;38739;53.324;6.862;2023-02-28T03:47:12;4.00;99.90
52867;DHT22;38739;53.324;6.862;2023-02-28T03:52:18;3.90;99.90
52867;DHT22;38739;53.324;6.862;2023-02-28T03:54:48;4.00;99.90
52867;DHT22;38739;53.324;6.862;2023-02-28T03:57:35;3.90;99.90
52867;DHT22;38739;53.324;6.862;2023-02-28T04:00:06;3.90;99.90
52867;DHT22;38739;53.324;6.862;2023-02-28T04:02:33;3.90;99.90
52867;DHT22;38739;53.324;6.862;2023-02-28T04:05:00;3.90;99.90
52867;DHT22;38739;53.324;6.862;2023-02-28T04:07:29;3.90;99.90
52867;DHT22;38739;53.324;6.862;2023-02-28T04:09:54;3.90;99.90
52867;DHT22;38739;53.324;6.862;2023-02-28T04:12:20;3.90;99.90
52867;DHT22;38739;53.324;6.862;2023-02-28T04:14:48;3.90;99.90
52867;DHT22;38739;53.324;6.862;2023-02-28T04:17:15;3.90;99.90
52867;DHT22;38739;53.324;6.862;2023-02-28T04:19:41;3.90;99.90
52867;DHT22;38739;53.324;6.862;2023-02-28T04:22:09;3.90;99.90
52867;DHT22;38739;53.324;6.862;2023-02-28T04:24:35;3.90;99.90
52867;DHT22;38739;53.324;6.862;2023-02-28T04:27:01;3.90;99.90
52867;DHT22;38739;53.324;6.862;2023-02-28T04:29:29;3.90;99.90
52867;DHT22;38739;53.324;6.862;2023-02-28T04:31:56;3.90;99.90
52867;DHT22;38739;53.324;6.862;2023-02-28T04:34:26;3.80;99.90
52867;DHT22;38739;53.324;6.862;2023-02-28T04:36:53;3.80;99.90
52867;DHT22;38739;53.324;6.862;2023-02-28T04:39:23;3.80;99.90
52867;DHT22;38739;53.324;6.862;2023-02-28T04:41:50;3.80;99.90
52867;DHT22;38739;53.324;6.862;2023-02-28T04:44:16;3.80;99.90
52867;DHT22;38739;53.324;6.862;2023-02-28T04:46:42;3.80;99.90
52867;DHT22;38739;53.324;6.862;2023-02-28T04:49:11;3.80;99.90
52867;DHT22;38739;53.324;6.862;2023-02-28T04:51:37;3.80;99.90
52867;DHT22;38739;53.324;6.862;2023-02-28T04:54:03;3.70;99.90
52867;DHT22;38739;53.324;6.862;2023-02-28T04:56:31;3.70;99.90
52867;DHT22;38739;53.324;6.862;2023-02-28T04:58:57;3.70;99.90
52867;DHT22;38739;53.324;6.862;2023-02-28T05:01:29;3.70;99.90
52867;DHT22;38739;53.324;6.862;2023-02-28T05:03:57;3.80;99.90
52867;DHT22;38739;53.324;6.862;2023-02-28T05:06:25;3.70;99.90
52867;DHT22;38739;53.324;6.862;2023-02-28T05:08:52;3.70;99.90
52867;DHT22;38739;53.324;6.862;2023-02-28T05:11:21;3.70;99.90
52867;DHT22;38739;53.324;6.862;2023-02-28T05:13:49;3.70;99.90
52867;DHT22;38739;53.324;6.862;2023-02-28T05:16:18;3.70;99.90
52867;DHT22;38739;53.324;6.862;2023-02-28T05:18:44;3.70;99.90
52867;DHT22;38739;53.324;6.862;2023-02-28T05:21:26;3.70;99.90
52867;DHT22;38739;53.324;6.862;2023-02-28T05:23:53;3.70;99.90
52867;DHT22;38739;53.324;6.862;2023-02-28T05:26:19;3.70;99.90
52867;DHT22;38739;53.324;6.862;2023-02-28T05:28:45;3.70;99.90
52867;DHT22;38739;53.324;6.862;2023-02-28T05:31:11;3.70;99.90
52867;DHT22;38739;53.324;6.862;2023-02-28T05:33:40;3.60;99.90
52867;DHT22;38739;53.324;6.862;2023-02-28T05:36:06;3.60;99.90
52867;DHT22;38739;53.324;6.862;2023-02-28T05:38:35;3.60;99.90
52867;DHT22;38739;53.324;6.862;2023-02-28T05:41:05;3.60;99.90
52867;DHT22;38739;53.324;6.862;2023-02-28T05:43:31;3.60;99.90
52867;DHT22;38739;53.324;6.862;2023-02-28T05:45:56;3.60;99.90
52867;DHT22;38739;53.324;6.862;2023-02-28T05:48:22;3.60;99.90
52867;DHT22;38739;53.324;6.862;2023-02-28T05:50:48;3.60;99.90
52867;DHT22;38739;53.324;6.862;2023-02-28T05:53:13;3.60;99.90
52867;DHT22;38739;53.324;6.862;2023-02-28T05:55:39;3.60;99.90
52867;DHT22;38739;53.324;6.862;2023-02-28T05:58:06;3.60;99.90
52867;DHT22;38739;53.324;6.862;2023-02-28T06:00:32;3.60;99.90
52867;DHT22;38739;53.324;6.862;2023-02-28T06:02:57;3.50;99.90
52867;DHT22;38739;53.324;6.862;2023-02-28T06:05:27;3.60;99.90
52867;DHT22;38739;53.324;6.862;2023-02-28T06:07:53;3.50;99.90
52867;DHT22;38739;53.324;6.862;2023-02-28T06:10:21;3.50;99.90
52867;DHT22;38739;53.324;6.862;2023-02-28T06:12:47;3.50;99.90
52867;DHT22;38739;53.324;6.862;2023-02-28T06:15:14;3.40;99.90
52867;DHT22;38739;53.324;6.862;2023-02-28T06:17:41;3.50;99.90
52867;DHT22;38739;53.324;6.862;2023-02-28T06:20:08;3.40;99.90
52867;DHT22;38739;53.324;6.862;2023-02-28T06:22:35;3.40;99.90
52867;DHT22;38739;53.324;6.862;2023-02-28T06:25:04;3.40;99.90
52867;DHT22;38739;53.324;6.862;2023-02-28T06:27:32;3.40;99.90
52867;DHT22;38739;53.324;6.862;2023-02-28T06:30:00;3.40;99.90
52867;DHT22;38739;53.324;6.862;2023-02-28T06:32:26;3.40;99.90
52867;DHT22;38739;53.324;6.862;2023-02-28T06:34:52;3.40;99.90
52867;DHT22;38739;53.324;6.862;2023-02-28T06:37:18;3.40;99.90
52867;DHT22;38739;53.324;6.862;2023-02-28T06:39:44;3.30;99.90
52867;DHT22;38739;53.324;6.862;2023-02-28T06:42:10;3.30;99.90
52867;DHT22;38739;53.324;6.862;2023-02-28T06:47:43;3.30;99.90
52867;DHT22;38739;53.324;6.862;2023-02-28T06:50:12;3.30;99.90
52867;DHT22;38739;53.324;6.862;2023-02-28T06:52:38;3.30;99.90
52867;DHT22;38739;53.324;6.862;2023-02-28T06:55:11;3.30;99.90
52867;DHT22;38739;53.324;6.862;2023-02-28T06:57:37;3.30;99.90
52867;DHT22;38739;53.324;6.862;2023-02-28T07:00:07;3.30;99.90
52867;DHT22;38739;53.324;6.862;2023-02-28T07:02:35;3.30;99.90
52867;DHT22;38739;53.324;6.862;2023-02-28T07:05:07;3.30;99.90
52867;DHT22;38739;53.324;6.862;2023-02-28T07:07:33;3.30;99.90
52867;DHT22;38739;53.324;6.862;2023-02-28T07:10:04;3.30;99.90
52867;DHT22;38739;53.324;6.862;2023-02-28T07:12:30;3.30;99.90
52867;DHT22;38739;53.324;6.862;2023-02-28T07:14:58;3.30;99.90
52867;DHT22;38739;53.324;6.862;2023-02-28T07:17:27;3.30;99.90
52867;DHT22;38739;53.324;6.862;2023-02-28T07:19:52;3.30;99.90
52867;DHT22;38739;53.324;6.862;2023-02-28T07:22:18;3.30;99.90
52867;DHT22;38739;53.324;6.862;2023-02-28T07:24:44;3.30;99.90
52867;DHT22;38739;53.324;6.862;2023-02-28T07:27:09;3.30;99.90
52867;DHT22;38739;53.324;6.862;2023-02-28T07:29:35;3.30;99.90
52867;DHT22;38739;53.324;6.862;2023-02-28T07:32:01;3.30;99.90
52867;DHT22;38739;53.324;6.862;2023-02-28T07:34:30;3.30;99.90
52867;DHT22;38739;53.324;6.862;2023-02-28T07:36:55;3.30;99.90
52867;DHT22;38739;53.324;6.862;2023-02-28T07:39:32;3.30;99.90
52867;DHT22;38739;53.324;6.862;2023-02-28T07:42:05;3.30;99.90
52867;DHT22;38739;53.324;6.862;2023-02-28T07:44:31;3.40;99.90
52867;DHT22;38739;53.324;6.862;2023-02-28T07:46:57;3.40;99.90
52867;DHT22;38739;53.324;6.862;2023-02-28T07:49:23;3.40;99.90
52867;DHT22;38739;53.324;6.862;2023-02-28T07:51:49;3.50;99.90
52867;DHT22;38739;53.324;6.862;2023-02-28T07:54:15;3.50;99.90
52867;DHT22;38739;53.324;6.862;2023-02-28T07:56:43;3.60;99.90
52867;DHT22;38739;53.324;6.862;2023-02-28T07:59:11;3.60;99.90
52867;DHT22;38739;53.324;6.862;2023-02-28T08:01:37;3.70;99.90
52867;DHT22;38739;53.324;6.862;2023-02-28T08:04:03;3.70;99.90
52867;DHT22;38739;53.324;6.862;2023-02-28T08:06:29;3.70;99.90
52867;DHT22;38739;53.324;6.862;2023-02-28T08:08:54;3.80;99.90
52867;DHT22;38739;53.324;6.862;2023-02-28T08:11:21;3.80;99.90
52867;DHT22;38739;53.324;6.862;2023-02-28T08:13:47;3.80;99.90
52867;DHT22;38739;53.324;6.862;2023-02-28T08:16:14;3.90;99.90
52867;DHT22;38739;53.324;6.862;2023-02-28T08:18:43;3.90;99.90
52867;DHT22;38739;53.324;6.862;2023-02-28T08:21:10;4.00;99.90
52867;DHT22;38739;53.324;6.862;2023-02-28T08:23:38;4.10;99.90
52867;DHT22;38739;53.324;6.862;2023-02-28T08:26:04;4.10;99.90
52867;DHT22;38739;53.324;6.862;2023-02-28T08:28:33;4.20;99.90
52867;DHT22;38739;53.324;6.862;2023-02-28T08:30:59;4.30;99.90
52867;DHT22;38739;53.324;6.862;2023-02-28T08:33:26;4.40;99.90
52867;DHT22;38739;53.324;6.862;2023-02-28T08:35:53;4.50;99.90
52867;DHT22;38739;53.324;6.862;2023-02-28T08:38:19;4.60;99.90
52867;DHT22;38739;53.324;6.862;2023-02-28T08:40:45;4.80;99.90
52867;DHT22;38739;53.324;6.862;2023-02-28T08:43:11;4.80;99.90
52867;DHT22;38739;53.324;6.862;2023-02-28T08:45:37;4.90;99.90
52867;DHT22;38739;53.324;6.862;2023-02-28T08:48:03;5.00;99.90
52867;DHT22;38739;53.324;6.862;2023-02-28T08:50:29;5.00;99.90
52867;DHT22;38739;53.324;6.862;2023-02-28T08:52:54;5.00;99.90
52867;DHT22;38739;53.324;6.862;2023-02-28T08:55:20;4.90;99.90
52867;DHT22;38739;53.324;6.862;2023-02-28T08:57:46;4.90;99.90
52867;DHT22;38739;53.324;6.862;2023-02-28T09:00:14;4.90;99.90
52867;DHT22;38739;53.324;6.862;2023-02-28T09:02:41;4.80;99.90
52867;DHT22;38739;53.324;6.862;2023-02-28T09:05:08;4.80;99.90
52867;DHT22;38739;53.324;6.862;2023-02-28T09:07:34;4.80;99.90
52867;DHT22;38739;53.324;6.862;2023-02-28T09:09:59;4.80;99.90
52867;DHT22;38739;53.324;6.862;2023-02-28T09:12:26;4.80;99.90
52867;DHT22;38739;53.324;6.862;2023-02-28T09:14:53;4.80;99.90
52867;DHT22;38739;53.324;6.862;2023-02-28T09:17:19;4.80;99.90
52867;DHT22;38739;53.324;6.862;2023-02-28T09:19:47;4.90;99.90
52867;DHT22;38739;53.324;6.862;2023-02-28T09:22:13;4.90;99.90
52867;DHT22;38739;53.324;6.862;2023-02-28T09:24:39;5.00;99.90
52867;DHT22;38739;53.324;6.862;2023-02-28T09:27:05;5.00;99.90
52867;DHT22;38739;53.324;6.862;2023-02-28T09:29:32;5.10;99.90
52867;DHT22;38739;53.324;6.862;2023-02-28T09:31:58;5.20;99.90
52867;DHT22;38739;53.324;6.862;2023-02-28T09:34:27;5.20;99.90
52867;DHT22;38739;53.324;6.862;2023-02-28T09:36:53;5.40;99.90
52867;DHT22;38739;53.324;6.862;2023-02-28T09:39:21;5.60;99.90
52867;DHT22;38739;53.324;6.862;2023-02-28T09:41:52;6.40;99.90
52867;DHT22;38739;53.324;6.862;2023-02-28T09:44:37;7.80;99.90
52867;DHT22;38739;53.324;6.862;2023-02-28T09:47:15;9.10;99.90
52867;DHT22;38739;53.324;6.862;2023-02-28T09:49:46;10.00;99.90
52867;DHT22;38739;53.324;6.862;2023-02-28T09:52:22;11.10;99.90
52867;DHT22;38739;53.324;6.862;2023-02-28T09:54:52;12.00;99.90
52867;DHT22;38739;53.324;6.862;2023-02-28T10:02:49;14.50;99.90
52867;DHT22;38739;53.324;6.862;2023-02-28T10:05:22;14.90;98.10
52867;DHT22;38739;53.324;6.862;2023-02-28T10:08:26;15.20;96.50
52867;DHT22;38739;53.324;6.862;2023-02-28T10:10:58;15.40;93.50
52867;DHT22;38739;53.324;6.862;2023-02-28T10:16:15;15.90;87.40
52867;DHT22;38739;53.324;6.862;2023-02-28T10:19:03;15.90;91.70
52867;DHT22;38739;53.324;6.862;2023-02-28T10:22:05;16.20;86.90
52867;DHT22;38739;53.324;6.862;2023-02-28T10:24:43;16.60;85.50
52867;DHT22;38739;53.324;6.862;2023-02-28T10:27:28;16.70;83.90
52867;DHT22;38739;53.324;6.862;2023-02-28T10:29:56;16.70;84.30
52867;DHT22;38739;53.324;6.862;2023-02-28T10:32:38;16.60;87.40
52867;DHT22;38739;53.324;6.862;2023-02-28T10:35:21;16.60;85.00
52867;DHT22;38739;53.324;6.862;2023-02-28T10:37:50;16.30;79.60
52867;DHT22;38739;53.324;6.862;2023-02-28T10:43:02;17.10;81.90
52867;DHT22;38739;53.324;6.862;2023-02-28T10:45:39;16.80;77.40
52867;DHT22;38739;53.324;6.862;2023-02-28T11:01:37;17.30;81.10
52867;DHT22;38739;53.324;6.862;2023-02-28T11:06:48;17.40;79.30
52867;DHT22;38739;53.324;6.862;2023-02-28T11:09:35;17.00;78.70
52867;DHT22;38739;53.324;6.862;2023-02-28T11:12:07;17.40;82.80
52867;DHT22;38739;53.324;6.862;2023-02-28T11:14:52;17.50;79.90
52867;DHT22;38739;53.324;6.862;2023-02-28T11:17:24;17.50;76.60
52867;DHT22;38739;53.324;6.862;2023-02-28T11:19:53;17.50;75.30
52867;DHT22;38739;53.324;6.862;2023-02-28T11:22:27;17.90;75.60
52867;DHT22;38739;53.324;6.862;2023-02-28T11:25:00;17.80;71.20
52867;DHT22;38739;53.324;6.862;2023-02-28T11:27:44;17.10;72.30
52867;DHT22;38739;53.324;6.862;2023-02-28T11:30:33;15.90;72.00
52867;DHT22;38739;53.324;6.862;2023-02-28T11:33:10;15.10;76.40
52867;DHT22;38739;53.324;6.862;2023-02-28T11:35:49;15.40;81.50
52867;DHT22;38739;53.324;6.862;2023-02-28T11:38:17;15.40;79.00
52867;DHT22;38739;53.324;6.862;2023-02-28T11:59:55;21.00;61.70
52867;DHT22;38739;53.324;6.862;2023-02-28T12:02:29;20.70;62.30
52867;DHT22;38739;53.324;6.862;2023-02-28T12:07:47;19.50;61.70
52867;DHT22;38739;53.324;6.862;2023-02-28T12:10:32;19.60;62.50
52867;DHT22;38739;53.324;6.862;2023-02-28T12:16:21;20.40;60.60
52867;DHT22;38739;53.324;6.862;2023-02-28T12:19:21;20.10;60.50
52867;DHT22;38739;53.324;6.862;2023-02-28T12:27:46;18.60;64.00
52867;DHT22;38739;53.324;6.862;2023-02-28T12:30:21;17.90;65.40
52867;DHT22;38739;53.324;6.862;2023-02-28T12:33:04;18.30;65.50
52867;DHT22;38739;53.324;6.862;2023-02-28T12:35:58;18.90;63.80
52867;DHT22;38739;53.324;6.862;2023-02-28T12:38:28;19.70;61.30
52867;DHT22;38739;53.324;6.862;2023-02-28T12:41:04;19.30;61.90
52867;DHT22;38739;53.324;6.862;2023-02-28T12:43:38;18.10;62.00
52867;DHT22;38739;53.324;6.862;2023-02-28T12:46:21;17.60;63.00
52867;DHT22;38739;53.324;6.862;2023-02-28T12:48:53;16.90;63.40
52867;DHT22;38739;53.324;6.862;2023-02-28T12:51:23;16.70;65.50
52867;DHT22;38739;53.324;6.862;2023-02-28T12:59:27;14.90;66.30
52867;DHT22;38739;53.324;6.862;2023-02-28T13:05:00;14.00;70.20
52867;DHT22;38739;53.324;6.862;2023-02-28T13:13:15;16.20;66.40
52867;DHT22;38739;53.324;6.862;2023-02-28T13:18:44;16.30;64.40
52867;DHT22;38739;53.324;6.862;2023-02-28T13:21:26;17.40;63.70
52867;DHT22;38739;53.324;6.862;2023-02-28T13:34:31;19.00;59.40
52867;DHT22;38739;53.324;6.862;2023-02-28T13:47:39;20.70;54.80
52867;DHT22;38739;53.324;6.862;2023-02-28T14:04:41;18.20;57.50
52867;DHT22;38739;53.324;6.862;2023-02-28T14:07:22;17.20;59.70
52867;DHT22;38739;53.324;6.862;2023-02-28T14:09:58;16.00;62.30
52867;DHT22;38739;53.324;6.862;2023-02-28T14:15:57;14.10;65.10
52867;DHT22;38739;53.324;6.862;2023-02-28T14:18:31;13.40;67.60
52867;DHT22;38739;53.324;6.862;2023-02-28T14:29:57;11.50;71.50
52867;DHT22;38739;53.324;6.862;2023-02-28T14:32:32;11.20;73.00
52867;DHT22;38739;53.324;6.862;2023-02-28T14:38:05;10.50;74.40
52867;DHT22;38739;53.324;6.862;2023-02-28T14:40:34;10.40;75.70
52867;DHT22;38739;53.324;6.862;2023-02-28T14:43:05;10.30;76.50
52867;DHT22;38739;53.324;6.862;2023-02-28T14:45:35;10.30;76.30
52867;DHT22;38739;53.324;6.862;2023-02-28T14:48:05;10.10;76.40
52867;DHT22;38739;53.324;6.862;2023-02-28T14:50:36;10.00;76.60
52867;DHT22;38739;53.324;6.862;2023-02-28T14:53:03;9.90;76.60
52867;DHT22;38739;53.324;6.862;2023-02-28T14:55:31;9.80;77.80
52867;DHT22;38739;53.324;6.862;2023-02-28T14:58:05;9.70;78.40
52867;DHT22;38739;53.324;6.862;2023-02-28T15:00:49;9.60;79.40
52867;DHT22;38739;53.324;6.862;2023-02-28T15:03:36;9.50;79.40
52867;DHT22;38739;53.324;6.862;2023-02-28T15:06:12;9.40;80.30
52867;DHT22;38739;53.324;6.862;2023-02-28T15:08:38;9.20;79.90
52867;DHT22;38739;53.324;6.862;2023-02-28T15:11:16;9.10;81.20
52867;DHT22;38739;53.324;6.862;2023-02-28T15:13:47;9.00;82.20
52867;DHT22;38739;53.324;6.862;2023-02-28T15:16:24;8.90;83.60
52867;DHT22;38739;53.324;6.862;2023-02-28T15:21:31;8.80;85.10
52867;DHT22;38739;53.324;6.862;2023-02-28T15:26:41;8.60;86.70
52867;DHT22;38739;53.324;6.862;2023-02-28T15:29:17;8.50;88.10
52867;DHT22;38739;53.324;6.862;2023-02-28T15:31:48;8.40;87.80
52867;DHT22;38739;53.324;6.862;2023-02-28T15:34:20;8.30;87.80
52867;DHT22;38739;53.324;6.862;2023-02-28T15:36:46;8.20;88.20
52867;DHT22;38739;53.324;6.862;2023-02-28T15:39:27;8.10;89.10
52867;DHT22;38739;53.324;6.862;2023-02-28T15:42:17;8.10;90.20
52867;DHT22;38739;53.324;6.862;2023-02-28T15:44:43;8.10;90.20
52867;DHT22;38739;53.324;6.862;2023-02-28T15:47:29;8.00;90.50
52867;DHT22;38739;53.324;6.862;2023-02-28T15:50:02;7.90;92.20
52867;DHT22;38739;53.324;6.862;2023-02-28T15:52:29;7.80;93.20
52867;DHT22;38739;53.324;6.862;2023-02-28T15:55:22;7.80;94.30
52867;DHT22;38739;53.324;6.862;2023-02-28T15:57:54;7.70;95.80
52867;DHT22;38739;53.324;6.862;2023-02-28T16:00:25;7.60;96.30
52867;DHT22;38739;53.324;6.862;2023-02-28T16:02:51;7.60;96.70
52867;DHT22;38739;53.324;6.862;2023-02-28T16:05:30;7.50;97.30
52867;DHT22;38739;53.324;6.862;2023-02-28T16:08:11;7.40;97.80
52867;DHT22;38739;53.324;6.862;2023-02-28T16:10:37;7.40;98.40
52867;DHT22;38739;53.324;6.862;2023-02-28T16:13:03;7.30;99.10
52867;DHT22;38739;53.324;6.862;2023-02-28T16:15:32;7.20;99.70
52867;DHT22;38739;53.324;6.862;2023-02-28T16:18:00;7.10;99.90
52867;DHT22;38739;53.324;6.862;2023-02-28T16:20:30;7.00;99.90
52867;DHT22;38739;53.324;6.862;2023-02-28T16:22:56;7.00;99.90
52867;DHT22;38739;53.324;6.862;2023-02-28T16:25:40;6.90;99.90
52867;DHT22;38739;53.324;6.862;2023-02-28T16:28:31;6.90;99.90
52867;DHT22;38739;53.324;6.862;2023-02-28T16:30:59;6.80;99.90
52867;DHT22;38739;53.324;6.862;2023-02-28T16:33:28;6.70;99.90
52867;DHT22;38739;53.324;6.862;2023-02-28T16:35:54;6.60;99.90
52867;DHT22;38739;53.324;6.862;2023-02-28T16:38:19;6.50;99.90
52867;DHT22;38739;53.324;6.862;2023-02-28T16:40:49;6.40;99.90
52867;DHT22;38739;53.324;6.862;2023-02-28T16:43:18;6.40;99.90
52867;DHT22;38739;53.324;6.862;2023-02-28T16:45:46;6.30;99.90
52867;DHT22;38739;53.324;6.862;2023-02-28T16:48:14;6.20;99.90
52867;DHT22;38739;53.324;6.862;2023-02-28T16:50:40;6.10;99.90
52867;DHT22;38739;53.324;6.862;2023-02-28T16:53:06;6.10;99.90
52867;DHT22;38739;53.324;6.862;2023-02-28T16:55:32;6.00;99.90
52867;DHT22;38739;53.324;6.862;2023-02-28T16:58:01;5.90;99.90
52867;DHT22;38739;53.324;6.862;2023-02-28T17:00:29;5.80;99.90
52867;DHT22;38739;53.324;6.862;2023-02-28T17:02:56;5.70;99.90
52867;DHT22;38739;53.324;6.862;2023-02-28T17:05:22;5.70;99.90
52867;DHT22;38739;53.324;6.862;2023-02-28T17:07:49;5.60;99.90
52867;DHT22;38739;53.324;6.862;2023-02-28T17:10:21;5.50;99.90
52867;DHT22;38739;53.324;6.862;2023-02-28T17:12:47;5.40;99.90
52867;DHT22;38739;53.324;6.862;2023-02-28T17:15:15;5.30;99.90
52867;DHT22;38739;53.324;6.862;2023-02-28T17:17:44;5.30;99.90
52867;DHT22;38739;53.324;6.862;2023-02-28T17:20:18;5.20;99.90
52867;DHT22;38739;53.324;6.862;2023-02-28T17:22:48;5.10;99.90
52867;DHT22;38739;53.324;6.862;2023-02-28T17:25:14;5.00;99.90
52867;DHT22;38739;53.324;6.862;2023-02-28T17:27:40;4.90;99.90
52867;DHT22;38739;53.324;6.862;2023-02-28T17:30:25;4.90;99.90
52867;DHT22;38739;53.324;6.862;2023-02-28T17:32:56;4.80;99.90
52867;DHT22;38739;53.324;6.862;2023-02-28T17:35:22;4.70;99.90
52867;DHT22;38739;53.324;6.862;2023-02-28T17:37:48;4.60;99.90
52867;DHT22;38739;53.324;6.862;2023-02-28T17:40:16;4.50;99.90
52867;DHT22;38739;53.324;6.862;2023-02-28T17:42:43;4.40;99.90
52867;DHT22;38739;53.324;6.862;2023-02-28T17:45:09;4.30;99.90
52867;DHT22;38739;53.324;6.862;2023-02-28T17:47:35;4.30;99.90
52867;DHT22;38739;53.324;6.862;2023-02-28T17:50:00;4.20;99.90
52867;DHT22;38739;53.324;6.862;2023-02-28T17:52:26;4.10;99.90
52867;DHT22;38739;53.324;6.862;2023-02-28T17:54:52;4.00;99.90
52867;DHT22;38739;53.324;6.862;2023-02-28T17:57:18;3.90;99.90
52867;DHT22;38739;53.324;6.862;2023-02-28T17:59:48;3.90;99.90
52867;DHT22;38739;53.324;6.862;2023-02-28T18:02:14;3.80;99.90
52867;DHT22;38739;53.324;6.862;2023-02-28T18:04:40;3.70;99.90
52867;DHT22;38739;53.324;6.862;2023-02-28T18:07:08;3.60;99.90
52867;DHT22;38739;53.324;6.862;2023-02-28T18:09:34;3.60;99.90
52867;DHT22;38739;53.324;6.862;2023-02-28T18:12:00;3.50;99.90
52867;DHT22;38739;53.324;6.862;2023-02-28T18:14:26;3.50;99.90
52867;DHT22;38739;53.324;6.862;2023-02-28T18:16:53;3.40;99.90
52867;DHT22;38739;53.324;6.862;2023-02-28T18:19:20;3.40;99.90
52867;DHT22;38739;53.324;6.862;2023-02-28T18:21:49;3.30;99.90
52867;DHT22;38739;53.324;6.862;2023-02-28T18:24:16;3.30;99.90
52867;DHT22;38739;53.324;6.862;2023-02-28T18:26:42;3.20;99.90
52867;DHT22;38739;53.324;6.862;2023-02-28T18:29:20;3.20;99.90
52867;DHT22;38739;53.324;6.862;2023-02-28T18:31:47;3.10;99.90
52867;DHT22;38739;53.324;6.862;2023-02-28T18:34:13;3.10;99.90
52867;DHT22;38739;53.324;6.862;2023-02-28T18:36:39;3.00;99.90
52867;DHT22;38739;53.324;6.862;2023-02-28T18:39:08;2.90;99.90
52867;DHT22;38739;53.324;6.862;2023-02-28T18:41:33;2.90;99.90
52867;DHT22;38739;53.324;6.862;2023-02-28T18:44:00;2.90;99.90
52867;DHT22;38739;53.324;6.862;2023-02-28T18:46:26;2.80;99.90
52867;DHT22;38739;53.324;6.862;2023-02-28T18:48:52;2.80;99.90
52867;DHT22;38739;53.324;6.862;2023-02-28T18:51:23;2.80;99.90
52867;DHT22;38739;53.324;6.862;2023-02-28T18:53:52;2.80;99.90
52867;DHT22;38739;53.324;6.862;2023-02-28T18:56:23;2.70;99.90
52867;DHT22;38739;53.324;6.862;2023-02-28T18:58:49;2.70;99.90